Time;durP1;ratioP1;P1;durP2;ratioP2;P2;SDS_P1;SDS_P2;PMS_P1;PMS_P2;Temp;Humidity;BMP_temperature;BMP_pressure;BME280_temperature;BME280_humidity;BME280_pressure;Samples;Min_cycle;Max_cycle;Signal;HPM_P1;HPM_P2
2023/07/13 00:01:16;;;;;;;2.25;0.88;;;15.70;98.40;;;;;;5034716;28;20022;-67
2023/07/13 00:03:42;;;;;;;6.15;0.90;;;15.70;98.70;;;;;;5034478;28;20506;-64
2023/07/13 00:06:08;;;;;;;3.85;1.10;;;15.60;99.20;;;;;;5033336;28;20029;-64
2023/07/13 00:08:34;;;;;;;4.68;1.15;;;15.60;99.90;;;;;;5034340;28;20052;-64
2023/07/13 00:11:04;;;;;;;10.52;1.35;;;15.50;99.90;;;;;;5016753;28;20084;-67
2023/07/13 00:13:30;;;;;;;6.78;1.50;;;15.50;99.90;;;;;;5033391;28;20030;-64
2023/07/13 00:15:57;;;;;;;8.30;1.48;;;15.40;99.90;;;;;;5034364;28;20399;-64
2023/07/13 00:18:23;;;;;;;6.75;1.40;;;15.40;99.90;;;;;;5016301;28;20037;-64
2023/07/13 00:20:49;;;;;;;2.42;1.10;;;15.40;99.90;;;;;;5034471;28;20017;-64
2023/07/13 00:23:16;;;;;;;4.60;1.10;;;15.30;99.90;;;;;;5034313;28;20079;-67
2023/07/13 00:25:42;;;;;;;2.83;0.88;;;15.30;99.90;;;;;;5034298;28;20104;-66
2023/07/13 00:28:08;;;;;;;5.20;1.00;;;15.20;99.90;;;;;;5033742;28;20109;-64
2023/07/13 00:40:40;;;;;;;4.13;0.77;;;15.00;99.90;;;;;;5034443;28;20115;-66
2023/07/13 00:43:21;;;;;;;7.65;0.95;;;15.00;99.90;;;;;;5034008;28;20030;-66
2023/07/13 00:45:47;;;;;;;3.67;1.08;;;14.90;99.90;;;;;;5016028;28;20025;-66
2023/07/13 00:48:16;;;;;;;6.32;1.27;;;14.80;99.90;;;;;;5033770;28;20021;-67
2023/07/13 00:50:44;;;;;;;3.15;0.93;;;14.80;99.90;;;;;;5033754;28;20139;-66
2023/07/13 00:53:11;;;;;;;3.05;0.90;;;14.80;99.90;;;;;;5033899;28;20036;-66
2023/07/13 00:55:38;;;;;;;1.63;0.70;;;14.70;99.90;;;;;;5033606;28;20024;-66
2023/07/13 00:58:06;;;;;;;2.97;0.80;;;14.70;99.90;;;;;;5033390;28;20037;-67
2023/07/13 01:00:35;;;;;;;3.55;1.15;;;14.80;99.90;;;;;;5016000;28;20178;-66
2023/07/13 01:03:04;;;;;;;5.85;0.85;;;14.80;99.90;;;;;;5033407;28;20021;-66
2023/07/13 01:05:31;;;;;;;2.35;0.63;;;14.70;99.90;;;;;;5015707;28;20029;-67
2023/07/13 01:07:57;;;;;;;5.00;1.10;;;14.70;99.90;;;;;;5032388;28;20434;-66
2023/07/13 01:10:23;;;;;;;9.30;1.23;;;14.70;99.90;;;;;;5033547;28;20030;-67
2023/07/13 01:12:49;;;;;;;3.72;1.20;;;14.70;99.90;;;;;;5015632;28;20030;-64
2023/07/13 01:15:37;;;;;;;4.53;0.98;;;14.70;99.90;;;;;;5015643;28;20597;-67
2023/07/13 01:18:04;;;;;;;10.32;0.90;;;14.60;99.90;;;;;;5032893;28;20034;-67
2023/07/13 01:20:29;;;;;;;4.30;1.20;;;14.70;99.90;;;;;;5033260;28;20097;-67
2023/07/13 01:22:55;;;;;;;4.78;0.80;;;14.60;99.90;;;;;;5033359;28;20061;-67
2023/07/13 01:25:21;;;;;;;8.60;1.33;;;14.60;99.90;;;;;;5033199;28;20034;-64
2023/07/13 01:27:46;;;;;;;4.35;0.90;;;14.60;99.90;;;;;;5046448;22;20100;-65
2023/07/13 01:30:12;;;;;;;7.50;0.90;;;14.50;99.90;;;;;;4993508;28;20019;-65
2023/07/13 01:32:41;;;;;;;4.03;0.90;;;14.50;99.90;;;;;;4993832;28;20479;-65
2023/07/13 01:35:07;;;;;;;5.68;1.10;;;14.50;99.90;;;;;;4993701;28;20056;-65
2023/07/13 01:37:35;;;;;;;1.45;0.80;;;14.50;99.90;;;;;;4998836;28;20057;-65
2023/07/13 01:40:02;;;;;;;6.38;1.00;;;14.40;99.90;;;;;;5013321;28;20113;-64
2023/07/13 01:42:29;;;;;;;2.25;1.00;;;14.40;99.90;;;;;;4995688;28;20034;-66
2023/07/13 01:44:54;;;;;;;2.90;1.05;;;14.40;99.90;;;;;;5013074;28;20020;-65
2023/07/13 01:47:20;;;;;;;2.97;1.08;;;14.30;99.90;;;;;;5012754;28;20028;-65
2023/07/13 01:49:47;;;;;;;8.70;1.05;;;14.20;99.90;;;;;;5012980;28;20034;-65
2023/07/13 01:52:12;;;;;;;4.43;0.90;;;14.20;99.90;;;;;;5012948;28;20026;-66
2023/07/13 01:54:38;;;;;;;4.60;1.05;;;14.20;99.90;;;;;;5012915;28;20095;-65
2023/07/13 01:57:04;;;;;;;3.22;0.90;;;14.10;99.90;;;;;;4994909;28;20112;-65
2023/07/13 01:59:29;;;;;;;2.00;0.88;;;14.00;99.90;;;;;;5012866;28;20037;-65
2023/07/13 02:01:55;;;;;;;2.20;1.05;;;14.00;99.90;;;;;;5012778;28;20025;-65
2023/07/13 02:04:20;;;;;;;4.43;1.20;;;13.90;99.90;;;;;;4995206;28;20034;-67
2023/07/13 02:06:46;;;;;;;2.50;0.93;;;13.90;99.90;;;;;;5012477;28;20111;-65
2023/07/13 02:09:12;;;;;;;4.32;0.70;;;13.90;99.90;;;;;;4994894;28;20028;-65
2023/07/13 02:11:37;;;;;;;5.07;1.17;;;13.80;99.90;;;;;;5012614;28;20026;-66
2023/07/13 02:14:03;;;;;;;2.25;1.02;;;13.80;99.90;;;;;;5012482;28;20030;-65
2023/07/13 02:16:30;;;;;;;4.57;1.10;;;13.80;99.90;;;;;;5012433;28;20038;-65
2023/07/13 02:18:56;;;;;;;2.88;1.17;;;13.80;99.90;;;;;;5011919;28;20026;-65
2023/07/13 02:21:23;;;;;;;2.47;1.55;;;13.70;99.90;;;;;;5012504;28;20501;-66
2023/07/13 02:23:49;;;;;;;7.15;1.52;;;13.70;99.90;;;;;;5012421;28;20026;-64
2023/07/13 02:26:15;;;;;;;6.45;1.42;;;13.70;99.90;;;;;;5012398;28;20018;-64
2023/07/13 02:28:40;;;;;;;5.80;1.10;;;13.70;99.90;;;;;;5011969;28;20041;-64
2023/07/13 02:31:08;;;;;;;4.13;1.05;;;13.70;99.90;;;;;;5012334;28;20025;-66
2023/07/13 02:33:33;;;;;;;8.68;2.15;;;13.60;99.90;;;;;;5011002;28;20022;-65
2023/07/13 02:35:59;;;;;;;5.70;1.05;;;13.60;99.90;;;;;;5012236;28;20029;-65
2023/07/13 02:38:24;;;;;;;5.05;1.33;;;13.60;99.90;;;;;;4994363;28;20111;-64
2023/07/13 02:40:50;;;;;;;7.65;1.30;;;13.70;99.90;;;;;;5012175;28;20026;-65
2023/07/13 02:43:16;;;;;;;4.68;1.45;;;13.70;99.90;;;;;;5012189;28;20021;-65
2023/07/13 02:45:45;;;;;;;7.00;1.17;;;13.70;99.90;;;;;;5012362;28;20033;-65
2023/07/13 02:48:11;;;;;;;2.63;1.10;;;13.80;99.90;;;;;;5011995;28;20104;-66
2023/07/13 02:50:36;;;;;;;2.22;1.27;;;13.80;99.90;;;;;;5011954;28;20068;-65
2023/07/13 02:53:02;;;;;;;2.22;1.00;;;13.90;99.90;;;;;;5012430;28;20029;-65
2023/07/13 02:55:27;;;;;;;9.15;1.02;;;14.00;99.90;;;;;;5012257;28;20435;-65
2023/07/13 02:57:54;;;;;;;4.72;1.38;;;14.00;99.90;;;;;;5011795;28;20419;-66
2023/07/13 03:00:19;;;;;;;5.47;1.00;;;14.10;99.90;;;;;;5012324;28;20057;-66
2023/07/13 03:02:45;;;;;;;8.20;2.10;;;14.10;99.90;;;;;;5012096;28;20111;-65
2023/07/13 03:05:12;;;;;;;6.85;1.02;;;14.10;99.90;;;;;;5011628;28;20037;-65
2023/07/13 03:07:38;;;;;;;11.52;3.28;;;14.10;99.90;;;;;;5011479;28;20029;-65
2023/07/13 03:10:06;;;;;;;2.75;1.10;;;14.10;99.90;;;;;;5012042;28;20030;-66
2023/07/13 03:12:31;;;;;;;9.05;1.50;;;14.00;99.90;;;;;;5012034;28;20029;-65
2023/07/13 03:14:57;;;;;;;4.65;1.02;;;14.10;99.90;;;;;;5012236;28;20030;-65
2023/07/13 03:17:23;;;;;;;3.05;1.10;;;14.00;99.90;;;;;;5011540;28;20018;-66
2023/07/13 03:19:50;;;;;;;4.88;1.10;;;14.00;99.90;;;;;;5011664;28;20105;-64
2023/07/13 03:22:19;;;;;;;4.70;1.13;;;14.00;99.90;;;;;;5011822;28;20022;-65
2023/07/13 03:24:45;;;;;;;8.63;2.15;;;13.90;99.90;;;;;;5011666;28;20057;-66
2023/07/13 03:27:11;;;;;;;4.00;1.23;;;13.90;99.90;;;;;;5011424;28;20068;-65
2023/07/13 03:29:36;;;;;;;4.40;0.98;;;13.80;99.90;;;;;;5011783;28;20029;-65
2023/07/13 03:32:04;;;;;;;2.88;0.98;;;13.80;99.90;;;;;;5015536;28;20387;-64
2023/07/13 03:34:30;;;;;;;4.93;1.10;;;13.80;99.90;;;;;;5015514;28;20046;-64
2023/07/13 03:36:55;;;;;;;2.92;1.10;;;13.80;99.90;;;;;;4997666;28;20076;-65
2023/07/13 03:39:21;;;;;;;6.22;1.10;;;13.80;99.90;;;;;;4997665;28;20495;-65
2023/07/13 03:41:47;;;;;;;4.90;0.95;;;13.80;99.90;;;;;;5015380;28;20399;-65
2023/07/13 03:44:12;;;;;;;6.55;1.50;;;13.90;99.90;;;;;;5015262;28;20037;-64
2023/07/13 03:46:38;;;;;;;7.25;1.67;;;13.90;99.90;;;;;;5015117;28;20037;-65
2023/07/13 03:49:05;;;;;;;9.02;1.55;;;13.90;99.90;;;;;;5014892;28;20045;-65
2023/07/13 03:51:31;;;;;;;7.97;1.15;;;13.90;99.90;;;;;;5015164;28;20506;-65
2023/07/13 03:53:57;;;;;;;5.43;0.90;;;13.90;99.90;;;;;;5015135;28;20026;-65
2023/07/13 03:56:23;;;;;;;2.95;0.80;;;14.00;99.90;;;;;;5014898;28;20502;-65
2023/07/13 03:58:50;;;;;;;2.58;1.15;;;14.00;99.90;;;;;;5014844;28;20058;-65
2023/07/13 04:01:18;;;;;;;2.85;0.75;;;14.10;99.90;;;;;;5014994;28;20037;-65
2023/07/13 04:03:46;;;;;;;6.78;1.27;;;14.10;99.90;;;;;;4997241;28;20022;-65
2023/07/13 04:06:21;;;;;;;6.18;1.00;;;14.10;99.90;;;;;;5014756;28;20100;-65
2023/07/13 04:08:52;;;;;;;8.02;1.33;;;14.20;99.90;;;;;;5014542;28;20022;-65
2023/07/13 04:11:18;;;;;;;3.35;1.13;;;14.20;99.90;;;;;;5014929;28;20037;-65
2023/07/13 04:13:44;;;;;;;8.77;2.67;;;14.30;99.90;;;;;;5014623;28;20026;-64
2023/07/13 04:16:10;;;;;;;3.58;0.90;;;14.30;99.90;;;;;;5014685;28;20025;-65
2023/07/13 04:18:36;;;;;;;2.78;1.10;;;14.30;99.90;;;;;;5014404;28;20088;-65
2023/07/13 04:21:01;;;;;;;9.15;2.38;;;14.40;99.90;;;;;;5014594;28;20258;-65
2023/07/13 04:23:27;;;;;;;6.25;1.10;;;14.40;99.90;;;;;;5014765;28;20033;-65
2023/07/13 04:25:53;;;;;;;3.70;1.25;;;14.50;99.90;;;;;;5014495;28;20096;-65
2023/07/13 04:28:21;;;;;;;10.60;1.55;;;14.60;99.90;;;;;;4996412;28;20042;-65
2023/07/13 04:30:47;;;;;;;7.72;1.35;;;14.60;99.90;;;;;;5014200;28;20026;-65
2023/07/13 04:33:12;;;;;;;5.55;1.30;;;14.70;99.90;;;;;;4996820;28;20113;-65
2023/07/13 04:35:38;;;;;;;9.52;1.05;;;14.80;99.90;;;;;;5014276;28;20026;-65
2023/07/13 04:38:04;;;;;;;7.57;1.30;;;15.00;99.90;;;;;;5013979;28;20033;-65
2023/07/13 04:40:30;;;;;;;4.25;1.30;;;15.30;99.90;;;;;;5014171;28;20025;-65
2023/07/13 04:42:56;;;;;;;9.73;1.77;;;16.30;99.90;;;;;;5013945;28;20037;-65
2023/07/13 04:45:24;;;;;;;4.05;1.38;;;17.40;99.90;;;;;;5014645;28;20038;-66
2023/07/13 04:47:50;;;;;;;4.10;0.93;;;18.60;99.90;;;;;;5013633;28;20503;-67
2023/07/13 04:50:19;;;;;;;5.53;1.35;;;19.30;97.50;;;;;;5014283;28;20026;-66
2023/07/13 04:52:45;;;;;;;2.85;0.90;;;20.10;96.10;;;;;;5013961;28;20042;-65
2023/07/13 04:55:11;;;;;;;3.92;1.25;;;21.10;95.60;;;;;;5013894;28;20053;-66
2023/07/13 04:57:36;;;;;;;3.25;0.95;;;22.00;92.80;;;;;;5013560;28;20101;-66
2023/07/13 05:00:06;;;;;;;2.88;1.10;;;22.80;90.70;;;;;;5013757;28;20038;-66
2023/07/13 05:02:33;;;;;;;3.75;0.88;;;23.00;89.90;;;;;;5013744;28;20033;-67
2023/07/13 05:04:59;;;;;;;3.70;0.80;;;23.30;87.70;;;;;;5013674;28;20033;-66
2023/07/13 05:07:25;;;;;;;5.95;0.93;;;23.60;89.80;;;;;;5013263;28;20026;-65
2023/07/13 05:09:51;;;;;;;5.32;1.52;;;23.60;85.80;;;;;;5013849;28;20442;-66
2023/07/13 05:12:16;;;;;;;3.03;0.90;;;23.90;84.60;;;;;;5013412;28;20022;-66
2023/07/13 05:14:42;;;;;;;3.40;1.15;;;23.70;85.30;;;;;;5013422;28;20038;-66
2023/07/13 05:17:08;;;;;;;3.47;1.00;;;24.10;84.70;;;;;;5013081;28;20022;-66
2023/07/13 05:19:33;;;;;;;3.42;0.90;;;24.40;83.90;;;;;;5013397;28;20491;-66
2023/07/13 05:21:59;;;;;;;3.33;1.48;;;24.90;81.60;;;;;;5013396;28;20032;-66
2023/07/13 05:24:24;;;;;;;2.75;1.17;;;25.50;80.20;;;;;;5013311;28;20018;-66
2023/07/13 05:26:50;;;;;;;3.70;1.00;;;25.40;79.50;;;;;;5013029;28;20030;-66
2023/07/13 05:29:16;;;;;;;4.15;1.05;;;25.50;78.80;;;;;;5013061;28;20030;-66
2023/07/13 05:31:41;;;;;;;5.22;0.98;;;25.70;79.60;;;;;;5013226;28;20022;-66
2023/07/13 05:34:07;;;;;;;5.43;1.23;;;25.30;79.00;;;;;;5013181;28;20133;-66
2023/07/13 05:36:32;;;;;;;3.92;1.25;;;25.20;80.00;;;;;;5013024;28;20163;-65
2023/07/13 05:38:58;;;;;;;4.68;1.10;;;25.80;78.20;;;;;;5012868;28;20052;-65
2023/07/13 05:41:23;;;;;;;4.35;1.05;;;25.40;79.20;;;;;;5013015;28;20033;-66
2023/07/13 05:43:49;;;;;;;6.95;1.10;;;25.60;78.60;;;;;;5012913;28;20037;-66
2023/07/13 05:46:15;;;;;;;1.92;0.88;;;25.80;78.40;;;;;;5012843;28;20036;-66
2023/07/13 05:48:40;;;;;;;2.53;0.90;;;26.00;77.20;;;;;;5012908;28;20028;-66
2023/07/13 05:51:06;;;;;;;5.13;1.13;;;25.80;77.20;;;;;;4995258;28;20393;-67
2023/07/13 05:53:31;;;;;;;3.95;1.00;;;25.70;78.20;;;;;;5012274;28;20054;-66
2023/07/13 05:55:57;;;;;;;3.00;1.15;;;25.90;78.20;;;;;;5012496;28;20351;-66
2023/07/13 05:58:23;;;;;;;4.82;0.93;;;26.30;77.30;;;;;;5012727;28;20088;-66
2023/07/13 06:00:49;;;;;;;3.40;0.70;;;26.90;77.80;;;;;;5012610;28;20029;-66
2023/07/13 06:03:15;;;;;;;2.22;0.93;;;26.70;75.20;;;;;;4994981;28;20044;-67
2023/07/13 06:05:41;;;;;;;4.32;1.27;;;26.60;76.80;;;;;;5012513;28;20026;-67
2023/07/13 06:08:07;;;;;;;5.50;1.17;;;26.40;76.30;;;;;;5012329;28;20440;-67
2023/07/13 06:10:34;;;;;;;2.35;1.08;;;26.30;76.60;;;;;;4994797;28;20395;-65
2023/07/13 06:13:00;;;;;;;2.75;1.13;;;26.70;77.20;;;;;;5012365;28;20026;-64
2023/07/13 06:15:25;;;;;;;5.68;1.00;;;27.20;75.10;;;;;;5012502;28;20033;-64
2023/07/13 06:17:51;;;;;;;4.63;1.40;;;27.40;74.40;;;;;;5012168;28;20133;-66
2023/07/13 06:20:16;;;;;;;4.35;1.13;;;26.30;76.70;;;;;;5012440;28;20030;-65
2023/07/13 06:22:42;;;;;;;7.22;1.55;;;25.70;77.10;;;;;;5012301;28;20029;-64
2023/07/13 06:25:08;;;;;;;3.20;1.08;;;26.10;77.60;;;;;;5012070;28;20105;-63
2023/07/13 06:27:34;;;;;;;2.97;1.00;;;25.80;77.40;;;;;;5011867;28;20083;-66
2023/07/13 06:29:59;;;;;;;6.45;1.00;;;25.70;78.30;;;;;;5012196;28;20538;-65
2023/07/13 06:32:26;;;;;;;3.15;0.82;;;26.20;79.80;;;;;;5012201;28;20083;-65
2023/07/13 06:34:51;;;;;;;3.85;1.20;;;25.70;77.80;;;;;;5012081;28;20115;-65
2023/07/13 06:37:18;;;;;;;5.70;1.40;;;24.70;79.20;;;;;;5011749;28;20088;-63
2023/07/13 06:39:43;;;;;;;2.80;0.85;;;25.20;80.50;;;;;;5011999;28;20606;-64
2023/07/13 06:42:09;;;;;;;3.92;1.48;;;25.20;78.70;;;;;;5012311;28;20146;-64
2023/07/13 06:44:35;;;;;;;3.83;0.85;;;25.60;78.50;;;;;;5012435;28;20029;-64
2023/07/13 06:47:01;;;;;;;5.45;1.50;;;25.90;77.70;;;;;;5012187;28;20030;-63
2023/07/13 06:49:26;;;;;;;4.55;0.90;;;26.00;76.80;;;;;;5011938;28;20510;-64
2023/07/13 06:51:52;;;;;;;3.75;1.20;;;26.90;77.90;;;;;;5011988;28;20018;-64
2023/07/13 06:54:17;;;;;;;5.05;1.35;;;27.50;76.50;;;;;;5011863;28;20026;-64
2023/07/13 06:56:43;;;;;;;4.50;1.08;;;28.00;74.30;;;;;;5011733;28;20029;-63
2023/07/13 06:59:08;;;;;;;2.78;1.20;;;28.80;73.30;;;;;;5011724;28;20033;-66
2023/07/13 07:01:34;;;;;;;2.08;0.88;;;29.40;70.60;;;;;;5011849;28;20041;-64
2023/07/13 07:04:00;;;;;;;1.98;1.00;;;28.20;70.70;;;;;;5011813;28;20472;-64
2023/07/13 07:06:25;;;;;;;4.60;1.00;;;27.40;73.70;;;;;;5015146;28;20030;-65
2023/07/13 07:08:52;;;;;;;2.53;1.05;;;27.90;74.60;;;;;;5015470;28;20029;-64
2023/07/13 07:11:27;;;;;;;4.35;1.20;;;28.50;72.20;;;;;;5016382;28;20022;-65
2023/07/13 07:13:53;;;;;;;3.80;1.30;;;28.90;71.30;;;;;;5015836;28;20022;-64
2023/07/13 07:16:20;;;;;;;3.47;1.00;;;28.20;71.60;;;;;;5015636;28;20029;-64
2023/07/13 07:18:46;;;;;;;3.80;1.80;;;27.60;73.00;;;;;;4997829;28;20112;-64
2023/07/13 07:21:12;;;;;;;4.00;1.20;;;27.20;76.20;;;;;;5015654;28;20030;-65
2023/07/13 07:23:37;;;;;;;2.72;1.02;;;27.10;75.20;;;;;;5015484;28;20422;-64
2023/07/13 07:26:03;;;;;;;2.35;0.95;;;27.80;74.30;;;;;;5015377;28;20109;-65
2023/07/13 07:28:29;;;;;;;6.13;1.38;;;28.60;73.40;;;;;;5034772;22;21182;-65
2023/07/13 07:30:57;;;;;;;3.85;0.95;;;28.90;72.90;;;;;;5010208;28;20022;-65
2023/07/13 07:33:23;;;;;;;3.35;0.95;;;28.70;71.50;;;;;;5015039;28;20080;-65
2023/07/13 07:35:49;;;;;;;5.18;1.17;;;28.30;72.50;;;;;;5015187;28;20017;-65
2023/07/13 07:38:15;;;;;;;9.00;1.58;;;27.80;74.30;;;;;;5015105;28;20029;-65
2023/07/13 07:40:41;;;;;;;5.72;1.65;;;27.40;74.10;;;;;;5015250;28;20028;-65
2023/07/13 07:43:08;;;;;;;4.47;1.77;;;26.40;75.90;;;;;;5015071;28;20112;-65
2023/07/13 07:45:34;;;;;;;6.93;1.50;;;26.40;77.60;;;;;;5015180;28;20052;-65
2023/07/13 07:47:59;;;;;;;7.22;1.40;;;26.30;76.70;;;;;;5014808;28;20484;-65
2023/07/13 07:50:26;;;;;;;5.05;1.17;;;26.70;77.10;;;;;;5015005;28;20057;-64
2023/07/13 07:52:52;;;;;;;4.97;1.20;;;27.00;75.10;;;;;;5015011;28;20025;-65
2023/07/13 07:55:18;;;;;;;8.43;1.73;;;27.80;74.80;;;;;;5014935;28;20032;-65
2023/07/13 07:57:43;;;;;;;5.50;1.20;;;28.30;73.40;;;;;;5014649;28;20474;-65
2023/07/13 08:00:09;;;;;;;5.60;1.50;;;27.80;74.00;;;;;;5014781;28;20033;-65
2023/07/13 08:02:35;;;;;;;7.03;1.38;;;28.20;75.20;;;;;;5014893;28;20022;-65
2023/07/13 08:05:01;;;;;;;2.55;0.82;;;29.70;72.40;;;;;;5014743;28;20025;-65
2023/07/13 08:07:26;;;;;;;3.72;1.30;;;29.90;71.50;;;;;;5014429;28;20030;-65
2023/07/13 08:09:53;;;;;;;4.60;1.05;;;30.00;69.90;;;;;;5014691;28;20025;-65
2023/07/13 08:12:19;;;;;;;5.07;1.20;;;29.20;71.10;;;;;;5014621;28;20543;-65
2023/07/13 08:14:44;;;;;;;5.78;1.58;;;28.80;72.40;;;;;;5014674;28;20156;-65
2023/07/13 08:17:10;;;;;;;2.00;0.80;;;29.20;72.20;;;;;;5013775;28;20017;-65
2023/07/13 08:19:35;;;;;;;5.80;1.50;;;28.90;73.80;;;;;;4996906;28;20391;-65
2023/07/13 08:22:01;;;;;;;5.50;0.90;;;29.00;71.40;;;;;;5013207;28;20060;-65
2023/07/13 08:24:26;;;;;;;7.63;1.73;;;29.00;72.30;;;;;;5014442;28;20067;-65
2023/07/13 08:26:52;;;;;;;11.45;1.55;;;28.80;72.80;;;;;;5014125;28;20030;-65
2023/07/13 08:29:18;;;;;;;7.45;1.30;;;28.20;72.80;;;;;;5014100;28;20033;-65
2023/07/13 08:31:44;;;;;;;5.65;1.33;;;28.20;73.30;;;;;;5014407;28;20024;-65
2023/07/13 08:34:10;;;;;;;5.43;1.77;;;29.30;73.50;;;;;;5014264;28;20025;-65
2023/07/13 08:36:36;;;;;;;3.85;1.10;;;30.20;71.30;;;;;;5014081;28;20479;-65
2023/07/13 08:39:01;;;;;;;3.58;1.27;;;30.00;71.00;;;;;;5014008;28;20510;-65
2023/07/13 08:41:28;;;;;;;4.18;1.58;;;30.60;69.80;;;;;;5014097;28;20058;-65
2023/07/13 08:44:00;;;;;;;6.22;1.13;;;30.30;69.90;;;;;;5014052;28;20041;-65
2023/07/13 08:46:36;;;;;;;2.35;1.23;;;30.40;69.60;;;;;;5014159;28;20086;-65
2023/07/13 08:49:05;;;;;;;3.65;1.10;;;30.10;71.00;;;;;;5013734;28;20033;-65
2023/07/13 08:51:48;;;;;;;5.78;1.20;;;30.30;69.30;;;;;;5013910;28;20022;-65
2023/07/13 08:54:38;;;;;;;7.28;1.38;;;31.30;68.90;;;;;;5013857;28;20543;-66
2023/07/13 08:57:14;;;;;;;4.13;1.08;;;31.50;67.50;;;;;;5013534;28;20084;-65
2023/07/13 08:59:39;;;;;;;6.93;1.73;;;30.80;66.10;;;;;;5013701;28;20073;-65
2023/07/13 09:02:25;;;;;;;7.70;1.33;;;29.80;68.80;;;;;;5013709;28;20057;-65
2023/07/13 09:05:00;;;;;;;5.70;1.45;;;28.80;70.60;;;;;;5013641;28;20506;-65
2023/07/13 09:07:50;;;;;;;4.43;1.10;;;28.50;72.20;;;;;;5013360;28;20112;-64
2023/07/13 09:10:31;;;;;;;4.38;1.13;;;28.60;70.20;;;;;;5013620;28;20541;-65
2023/07/13 09:13:32;;;;;;;5.53;1.00;;;29.50;69.60;;;;;;5013607;28;20083;-65
2023/07/13 09:15:59;;;;;;;5.22;1.55;;;30.20;68.60;;;;;;4990061;28;20030;-65
2023/07/13 09:18:33;;;;;;;3.63;1.08;;;29.80;68.10;;;;;;5013244;28;20037;-65
2023/07/13 09:21:37;;;;;;;3.15;0.82;;;29.20;68.50;;;;;;5013245;28;20041;-65
2023/07/13 09:24:38;;;;;;;6.22;1.10;;;28.40;70.50;;;;;;4952726;29;20053;-65
2023/07/13 09:27:17;;;;;;;3.25;1.20;;;28.60;70.10;;;;;;5012927;28;20022;-65
2023/07/13 09:29:49;;;;;;;5.85;1.33;;;28.70;70.80;;;;;;5012749;28;20034;-65
2023/07/13 09:32:21;;;;;;;4.35;0.90;;;29.70;70.70;;;;;;4995597;28;20033;-65
2023/07/13 09:34:54;;;;;;;2.08;0.80;;;29.50;68.10;;;;;;5013113;28;20403;-65
2023/07/13 09:37:27;;;;;;;;;;;29.00;70.30;;;;;;5013147;28;20088;-65
2023/07/13 09:39:53;;;;;;;2.83;1.13;;;28.80;70.60;;;;;;5012959;28;19960;-65
2023/07/13 09:42:22;;;;;;;4.93;1.20;;;28.50;69.50;;;;;;5012899;28;20045;-65
2023/07/13 09:44:52;;;;;;;3.85;0.90;;;28.30;70.80;;;;;;5012902;28;20026;-65
2023/07/13 09:47:27;;;;;;;5.47;1.00;;;28.60;71.90;;;;;;5012676;28;20514;-65
2023/07/13 09:50:00;;;;;;;3.00;0.95;;;28.90;71.60;;;;;;4995161;28;20029;-65
2023/07/13 09:52:27;;;;;;;3.13;1.50;;;29.40;69.90;;;;;;4995174;28;20076;-65
2023/07/13 09:54:58;;;;;;;4.13;1.40;;;29.40;68.70;;;;;;5012778;28;20109;-65
2023/07/13 09:57:26;;;;;;;2.97;1.00;;;29.70;69.40;;;;;;5012447;28;20033;-66
2023/07/13 09:59:53;;;;;;;6.03;1.42;;;29.60;68.80;;;;;;5012565;28;20021;-65
2023/07/13 10:02:33;;;;;;;4.60;1.35;;;29.40;69.30;;;;;;5012591;28;20018;-65
2023/07/13 10:05:11;;;;;;;3.60;1.40;;;30.00;69.50;;;;;;5012533;28;20123;-65
2023/07/13 10:07:46;;;;;;;3.13;0.80;;;29.90;69.10;;;;;;5012405;28;20072;-65
2023/07/13 10:10:21;;;;;;;3.63;1.05;;;30.40;67.70;;;;;;5012518;28;20096;-65
2023/07/13 10:12:47;;;;;;;6.35;1.00;;;30.10;67.70;;;;;;4994904;28;20093;-65
2023/07/13 10:15:20;;;;;;;4.22;0.90;;;29.40;70.60;;;;;;4994888;28;20136;-65
2023/07/13 10:17:46;;;;;;;;;;;29.00;69.00;;;;;;5012526;28;20033;-65
2023/07/13 10:20:12;;;;;;;2.08;0.70;;;28.70;69.80;;;;;;5012226;28;19905;-65
2023/07/13 10:23:01;;;;;;;3.67;1.13;;;28.60;70.60;;;;;;5012282;28;20476;-65
2023/07/13 10:25:34;;;;;;;1.67;0.90;;;28.20;71.30;;;;;;5012072;28;20113;-65
2023/07/13 10:28:26;;;;;;;3.75;1.20;;;28.10;71.20;;;;;;5011975;28;20432;-65
2023/07/13 10:30:54;;;;;;;4.53;0.98;;;28.10;71.80;;;;;;4994556;28;20034;-65
2023/07/13 10:33:22;;;;;;;6.47;1.25;;;28.10;72.30;;;;;;5012337;28;20491;-65
2023/07/13 10:35:51;;;;;;;4.72;1.15;;;27.90;71.00;;;;;;5011909;28;20057;-65
2023/07/13 10:38:24;;;;;;;3.97;1.20;;;28.10;72.20;;;;;;5011720;28;20060;-65
2023/07/13 10:40:56;;;;;;;;;;;28.10;71.80;;;;;;4994634;28;20025;-65
2023/07/13 10:43:33;;;;;;;2.47;0.90;;;27.80;71.20;;;;;;5011989;28;19905;-65
2023/07/13 10:46:01;;;;;;;1.58;1.02;;;27.40;72.40;;;;;;5011978;28;20026;-65
2023/07/13 10:48:29;;;;;;;6.95;1.65;;;27.70;72.20;;;;;;5011586;28;20030;-65
2023/07/13 10:50:57;;;;;;;5.28;1.30;;;27.30;73.10;;;;;;5011944;28;20030;-65
2023/07/13 10:53:30;;;;;;;3.20;0.82;;;27.00;74.20;;;;;;5011884;28;20025;-65
2023/07/13 10:55:59;;;;;;;;;;;27.10;74.60;;;;;;5012124;28;20037;-64
2023/07/13 10:58:37;;;;;;;2.28;0.85;;;26.30;73.40;;;;;;5011586;28;20002;-65
2023/07/13 11:01:05;;;;;;;2.15;0.85;;;26.30;75.60;;;;;;5011696;28;20029;-64
2023/07/13 11:03:52;;;;;;;4.18;1.10;;;25.90;74.30;;;;;;5011714;28;20395;-65
2023/07/13 11:06:41;;;;;;;9.75;1.15;;;26.10;74.90;;;;;;4983584;28;20034;-65
2023/07/13 11:09:28;;;;;;;6.05;1.48;;;26.70;74.40;;;;;;5011534;28;20030;-65
2023/07/13 11:11:58;;;;;;;3.60;0.85;;;26.70;73.60;;;;;;5011824;28;20084;-65
2023/07/13 11:14:28;;;;;;;4.90;1.10;;;26.60;73.30;;;;;;5011625;28;20058;-65
2023/07/13 11:16:54;;;;;;;3.60;1.02;;;26.40;72.90;;;;;;5011513;28;20101;-65
2023/07/13 11:19:19;;;;;;;2.03;1.08;;;26.10;72.20;;;;;;4993869;28;20158;-65
2023/07/13 11:22:13;;;;;;;3.33;0.93;;;26.20;71.90;;;;;;5011587;28;20041;-65
2023/07/13 11:24:59;;;;;;;;;;;26.50;72.00;;;;;;5012043;28;20101;-64
2023/07/13 11:27:36;;;;;;;3.83;0.95;;;26.30;72.90;;;;;;5011466;28;19906;-65
2023/07/13 11:30:24;;;;;;;11.18;0.85;;;26.10;73.50;;;;;;5011420;28;20053;-65
2023/07/13 11:33:23;;;;;;;3.00;1.10;;;25.80;73.50;;;;;;4993915;28;20111;-64
2023/07/13 11:35:51;;;;;;;4.25;1.10;;;25.60;74.90;;;;;;4978802;28;20030;-65
2023/07/13 11:38:27;;;;;;;5.82;1.17;;;25.80;74.70;;;;;;5011138;28;20041;-65
2023/07/13 11:40:54;;;;;;;4.47;0.90;;;25.80;73.30;;;;;;5011508;28;20029;-65
2023/07/13 11:43:23;;;;;;;7.03;1.25;;;25.90;73.20;;;;;;5011392;28;20085;-65
2023/07/13 11:45:49;;;;;;;12.18;1.15;;;25.80;73.70;;;;;;5011430;28;20144;-64
2023/07/13 11:48:34;;;;;;;5.63;1.27;;;25.70;75.70;;;;;;4993634;28;20069;-65
2023/07/13 11:51:05;;;;;;;2.58;1.25;;;25.70;75.00;;;;;;5011905;28;20022;-65
2023/07/13 11:53:45;;;;;;;2.55;0.85;;;25.80;73.20;;;;;;5015104;28;20026;-65
2023/07/13 11:56:10;;;;;;;3.97;0.93;;;26.20;73.90;;;;;;5014922;28;20060;-65
2023/07/13 11:58:36;;;;;;;5.00;1.13;;;26.20;73.30;;;;;;5014670;28;20057;-65
2023/07/13 12:01:06;;;;;;;3.33;1.02;;;26.10;72.70;;;;;;5014849;28;20495;-65
2023/07/13 12:03:34;;;;;;;3.47;1.10;;;26.20;73.10;;;;;;5014784;28;20064;-65
2023/07/13 12:06:30;;;;;;;3.97;1.00;;;26.10;73.10;;;;;;5014725;28;20018;-64
2023/07/13 12:09:00;;;;;;;2.80;0.90;;;26.40;73.50;;;;;;5014495;28;20040;-65
2023/07/13 12:11:27;;;;;;;5.40;1.30;;;26.50;73.80;;;;;;5014693;28;20072;-65
2023/07/13 12:13:53;;;;;;;2.25;0.98;;;26.70;73.50;;;;;;5014602;28;20028;-65
2023/07/13 12:16:33;;;;;;;7.22;1.20;;;26.60;72.70;;;;;;5014461;28;20026;-65
2023/07/13 12:19:03;;;;;;;8.20;1.10;;;26.60;73.10;;;;;;5014330;28;20033;-65
2023/07/13 12:21:38;;;;;;;7.80;1.20;;;26.80;72.60;;;;;;5014511;28;20018;-65
2023/07/13 12:24:05;;;;;;;5.40;1.33;;;26.40;73.00;;;;;;5014466;28;20442;-64
2023/07/13 12:26:32;;;;;;;3.30;1.10;;;26.40;73.30;;;;;;4996628;28;20029;-65
2023/07/13 12:29:05;;;;;;;5.53;1.52;;;26.40;73.80;;;;;;5014063;28;20486;-65
2023/07/13 12:31:38;;;;;;;5.28;1.30;;;26.10;72.40;;;;;;5014278;28;20037;-65
2023/07/13 12:34:20;;;;;;;;;;;26.20;74.10;;;;;;5014796;28;20419;-65
2023/07/13 12:36:53;;;;;;;5.85;1.23;;;26.10;73.40;;;;;;5014051;28;20294;-65
2023/07/13 12:39:44;;;;;;;5.47;1.50;;;25.90;74.20;;;;;;5013909;28;20024;-65
2023/07/13 12:42:27;;;;;;;5.57;1.15;;;26.30;74.40;;;;;;5005888;28;20034;-65
2023/07/13 12:45:17;;;;;;;1.67;0.65;;;26.50;74.70;;;;;;5014036;28;20096;-65
2023/07/13 12:47:47;;;;;;;2.83;1.10;;;26.40;73.00;;;;;;5013795;28;20105;-65
2023/07/13 12:50:19;;;;;;;6.35;1.23;;;26.20;72.60;;;;;;5013959;28;20053;-65
2023/07/13 12:52:52;;;;;;;1.92;1.13;;;25.70;73.80;;;;;;5014021;28;20037;-65
2023/07/13 12:55:20;;;;;;;3.05;0.98;;;25.40;74.20;;;;;;5013905;28;20491;-64
2023/07/13 12:57:53;;;;;;;5.00;1.40;;;25.50;75.00;;;;;;5013502;28;20038;-65
2023/07/13 13:00:32;;;;;;;3.45;1.08;;;25.30;74.70;;;;;;5013683;28;20018;-65
2023/07/13 13:03:03;;;;;;;2.88;0.88;;;25.50;76.10;;;;;;5013714;28;20530;-65
2023/07/13 13:05:29;;;;;;;4.18;1.15;;;25.70;75.00;;;;;;5013753;28;20025;-65
2023/07/13 13:07:55;;;;;;;4.30;1.13;;;25.80;72.90;;;;;;5013334;28;20041;-64